createdAt,value
2022-08-12T00:00:14.582Z,99724.56
2022-08-12T00:03:02.261Z,99728.06
2022-08-12T00:06:04.008Z,99727.00
2022-08-12T00:08:55.017Z,99732.38
2022-08-12T00:11:45.267Z,99728.50
2022-08-12T00:14:34.555Z,99732.25
2022-08-12T00:17:23.495Z,99718.38
2022-08-12T00:20:12.428Z,99730.22
2022-08-12T00:23:00.445Z,99723.44
2022-08-12T00:26:23.822Z,99721.41
2022-08-12T00:29:14.728Z,99710.25
2022-08-12T00:32:06.098Z,99719.66
2022-08-12T00:34:55.274Z,99725.25
2022-08-12T00:37:45.625Z,99726.00
2022-08-12T00:40:35.141Z,99725.72
2022-08-12T00:43:07.806Z,99731.06
2022-08-12T00:45:58.334Z,99736.72
2022-08-12T00:48:29.589Z,99719.88
2022-08-12T00:51:02.982Z,99715.78
2022-08-12T00:53:35.799Z,99722.28
2022-08-12T00:56:08.936Z,99723.03
2022-08-12T00:58:48.256Z,99724.84
2022-08-12T01:01:20.279Z,99732.13
2022-08-12T01:04:17.902Z,99726.94
2022-08-12T01:07:07.918Z,99735.34
2022-08-12T01:09:56.811Z,99729.41
2022-08-12T01:12:29.124Z,99731.69
2022-08-12T01:14:59.938Z,99730.88
2022-08-12T01:17:32.442Z,99730.59
2022-08-12T01:20:10.271Z,99729.19
2022-08-12T01:22:56.830Z,99733.75
2022-08-12T01:25:32.389Z,99731.28
2022-08-12T01:28:07.865Z,99725.56
2022-08-12T01:30:38.987Z,99725.78
2022-08-12T01:33:13.385Z,99714.91
2022-08-12T01:35:57.833Z,99727.59
2022-08-12T01:38:40.194Z,99734.66
2022-08-12T01:41:15.426Z,99728.38
2022-08-12T01:43:47.359Z,99726.66
2022-08-12T01:46:43.554Z,99709.19
2022-08-12T01:49:14.237Z,99719.91
2022-08-12T01:52:20.547Z,99727.72
2022-08-12T01:54:46.696Z,99736.91
2022-08-12T01:57:58.867Z,99731.69
2022-08-12T02:00:35.623Z,99723.75
2022-08-12T02:04:03.061Z,99729.41
2022-08-12T02:07:02.503Z,99722.00
2022-08-12T02:10:50.315Z,99717.28
2022-08-12T02:13:49.641Z,99722.13
2022-08-12T02:16:31.750Z,99722.94
2022-08-12T02:19:44.986Z,99728.09
2022-08-12T02:22:42.468Z,99726.97
2022-08-12T02:25:33.548Z,99733.22
2022-08-12T02:28:07.850Z,99733.22
2022-08-12T02:30:42.913Z,99737.03
2022-08-12T02:33:18.497Z,99736.75
2022-08-12T02:35:49.979Z,99739.47
2022-08-12T02:38:23.261Z,99737.25
2022-08-12T02:40:59.354Z,99734.75
2022-08-12T02:43:46.395Z,99737.69
2022-08-12T02:46:21.123Z,99740.09
2022-08-12T02:48:56.119Z,99725.63
2022-08-12T02:51:33.287Z,99719.28
2022-08-12T02:54:06.702Z,99728.25
2022-08-12T02:56:40.196Z,99730.16
2022-08-12T02:59:17.988Z,99730.97
2022-08-12T03:02:01.000Z,99739.13
2022-08-12T03:04:55.707Z,99741.56
2022-08-12T03:07:56.565Z,99743.44
2022-08-12T03:10:34.699Z,99743.44
2022-08-12T03:13:10.082Z,99740.72
2022-08-12T03:15:41.865Z,99746.16
2022-08-12T03:18:34.635Z,99752.94
2022-08-12T03:21:09.176Z,99762.47
2022-08-12T03:24:10.694Z,99753.75
2022-08-12T03:27:00.175Z,99754.53
2022-08-12T03:29:50.177Z,99753.97
2022-08-12T03:32:35.614Z,99754.47
2022-08-12T03:35:43.775Z,99744.41
2022-08-12T03:38:17.683Z,99738.97
2022-08-12T03:41:21.993Z,99735.56
2022-08-12T03:44:25.926Z,99728.22
2022-08-12T03:47:42.571Z,99727.72
2022-08-12T03:50:54.808Z,99725.28
2022-08-12T03:54:11.328Z,99734.28
2022-08-12T03:57:03.522Z,99739.72
2022-08-12T04:00:00.721Z,99734.28
2022-08-12T04:02:43.675Z,99736.69
2022-08-12T04:05:23.013Z,99746.44
2022-08-12T04:07:57.913Z,99738.50
2022-08-12T04:10:50.800Z,99728.97
2022-08-12T04:13:27.889Z,99721.81
2022-08-12T04:16:00.130Z,99727.94
2022-08-12T04:18:31.730Z,99725.63
2022-08-12T04:21:03.782Z,99724.75
2022-08-12T04:23:35.353Z,99722.44
2022-08-12T04:26:07.279Z,99709.84
2022-08-12T04:28:40.207Z,99699.34
2022-08-12T04:31:10.924Z,99696.56
2022-08-12T04:33:43.946Z,99684.56
2022-08-12T04:36:14.737Z,99678.84
2022-08-12T04:38:46.109Z,99685.06
2022-08-12T04:41:17.658Z,99682.84
2022-08-12T04:43:59.671Z,99680.63
2022-08-12T04:46:34.508Z,99678.44
2022-08-12T04:49:07.073Z,99682.94
2022-08-12T04:51:38.384Z,99670.66
2022-08-12T04:54:09.333Z,99665.72
2022-08-12T04:56:39.277Z,99666.09
2022-08-12T04:59:09.958Z,99659.84
2022-08-12T05:01:40.566Z,99659.22
2022-08-12T05:04:28.886Z,99660.22
2022-08-12T05:07:16.451Z,99665.38
2022-08-12T05:10:00.481Z,99660.91
2022-08-12T05:13:00.259Z,99653.44
2022-08-12T05:16:04.008Z,99656.34
2022-08-12T05:18:45.905Z,99656.72
2022-08-12T05:21:18.498Z,99647.06
2022-08-12T05:24:08.917Z,99644.41
2022-08-12T05:26:39.199Z,99638.66
2022-08-12T05:30:08.273Z,99637.72
2022-08-12T05:32:04.545Z,99626.38
2022-08-12T05:34:36.051Z,99626.56
2022-08-12T05:37:06.752Z,99614.56
2022-08-12T05:39:37.226Z,99617.28
2022-08-12T05:42:07.947Z,99615.53
2022-08-12T05:44:38.123Z,99612.81
2022-08-12T05:47:08.905Z,99604.16
2022-08-12T05:49:42.679Z,99597.56
2022-08-12T05:52:12.970Z,99591.00
2022-08-12T05:54:57.055Z,99598.56
2022-08-12T05:57:28.295Z,99591.66
2022-08-12T05:59:58.877Z,99591.97
2022-08-12T06:02:29.454Z,99588.47
2022-08-12T06:05:01.755Z,99591.38
2022-08-12T06:07:59.256Z,99593.47
2022-08-12T06:10:32.276Z,99589.00
2022-08-12T06:13:04.242Z,99588.84
2022-08-12T06:15:39.328Z,99581.69
2022-08-12T06:18:16.225Z,99586.22
2022-08-12T06:20:53.966Z,99590.22
2022-08-12T06:23:33.324Z,99582.53
2022-08-12T06:26:21.570Z,99576.44
2022-08-12T06:28:54.098Z,99567.78
2022-08-12T06:42:04.941Z,99543.44
2022-08-12T06:44:45.963Z,99555.34
2022-08-12T06:47:18.035Z,99556.13
2022-08-12T06:49:55.807Z,99550.84
2022-08-12T06:52:38.607Z,99546.19
2022-08-12T06:55:17.509Z,99544.59
2022-08-12T06:58:10.413Z,99543.94
2022-08-12T07:01:04.395Z,99535.28
2022-08-12T07:03:35.241Z,99525.81
2022-08-12T07:06:08.411Z,99533.53
2022-08-12T07:08:38.686Z,99534.31
2022-08-12T07:11:15.497Z,99522.63
2022-08-12T07:14:12.846Z,99522.63
2022-08-12T07:16:55.163Z,99528.56
2022-08-12T07:19:26.768Z,99521.34
2022-08-12T07:22:15.758Z,99520.06
2022-08-12T07:25:06.150Z,99518.00
2022-08-12T07:27:44.893Z,99524.09
2022-08-12T07:30:16.378Z,99531.69
2022-08-12T07:32:51.040Z,99532.16
2022-08-12T07:35:22.247Z,99538.56
2022-08-12T07:38:41.464Z,99541.16
2022-08-12T07:41:20.897Z,99546.13
2022-08-12T07:43:55.333Z,99549.34
2022-08-12T07:46:32.764Z,99545.81
2022-08-12T07:49:26.262Z,99537.94
2022-08-12T07:51:56.694Z,99542.44
2022-08-12T07:59:06.961Z,99530.56
2022-08-12T08:01:40.138Z,99521.09
2022-08-12T08:04:29.049Z,99521.09
2022-08-12T08:07:01.754Z,99523.00
2022-08-12T08:09:32.011Z,99511.94
2022-08-12T08:12:20.216Z,99526.41
2022-08-12T08:14:52.737Z,99520.47
2022-08-12T08:17:22.968Z,99518.38
2022-08-12T08:20:02.544Z,99511.44
2022-08-12T08:22:41.950Z,99515.63
2022-08-12T08:25:34.252Z,99507.13
2022-08-12T08:28:10.969Z,99507.63
2022-08-12T08:30:46.844Z,99501.34
2022-08-12T08:33:24.422Z,99504.72
2022-08-12T08:36:16.188Z,99510.81
2022-08-12T08:38:56.082Z,99496.69
2022-08-12T08:42:13.870Z,99501.66
2022-08-12T08:44:39.518Z,99505.97
2022-08-12T08:47:13.127Z,99514.16
2022-08-12T08:49:43.958Z,99512.25
2022-08-12T08:52:40.043Z,99506.09
2022-08-12T08:55:06.043Z,99513.34
2022-08-12T08:57:43.809Z,99531.47
2022-08-12T09:00:21.977Z,99524.53
2022-08-12T09:02:59.136Z,99524.38
2022-08-12T09:06:01.540Z,99528.25
2022-08-12T09:12:07.182Z,99548.25
2022-08-12T09:14:29.560Z,99546.78
2022-08-12T09:17:00.511Z,99551.91
2022-08-12T09:19:30.747Z,99559.75
2022-08-12T09:22:04.805Z,99566.47
2022-08-12T09:24:35.066Z,99561.75
2022-08-12T09:27:07.642Z,99561.88
2022-08-12T09:30:11.154Z,99555.44
2022-08-12T09:33:04.680Z,99549.34
2022-08-12T09:35:28.531Z,99551.06
2022-08-12T09:38:28.538Z,99566.91
2022-08-12T09:42:35.179Z,99552.63
2022-08-12T09:44:37.942Z,99551.97
2022-08-12T09:47:02.457Z,99551.78
2022-08-12T09:49:42.665Z,99558.94
2022-08-12T09:52:16.881Z,99560.38
2022-08-12T09:54:52.781Z,99557.47
2022-08-12T09:58:46.680Z,99559.19
2022-08-12T10:00:28.243Z,99562.03
2022-08-12T10:03:04.054Z,99552.06
2022-08-12T10:06:19.627Z,99555.72
2022-08-12T10:08:32.223Z,99551.69
2022-08-12T10:11:23.949Z,99560.47
2022-08-12T10:14:13.321Z,99558.38
2022-08-12T10:16:58.887Z,99566.03
2022-08-12T10:27:05.696Z,99557.19
2022-08-12T10:37:22.632Z,99570.06
2022-08-12T10:40:09.898Z,99567.94
2022-08-12T10:43:00.997Z,99564.72
2022-08-12T10:45:32.495Z,99569.38
2022-08-12T10:48:21.905Z,99564.22
2022-08-12T10:51:03.434Z,99574.63
2022-08-12T10:53:46.022Z,99562.13
2022-08-12T10:56:18.982Z,99562.13
2022-08-12T10:58:49.723Z,99564.94
2022-08-12T11:01:49.138Z,99571.47
2022-08-12T11:04:27.908Z,99565.53
2022-08-12T11:08:36.243Z,99548.22
2022-08-12T11:10:06.347Z,99541.78
2022-08-12T11:13:09.040Z,99545.59
2022-08-12T11:16:03.692Z,99540.75
2022-08-12T11:18:46.987Z,99534.31
2022-08-12T11:21:56.734Z,99537.34
2022-08-12T11:24:32.185Z,99532.50
2022-08-12T11:27:13.410Z,99534.25
2022-08-12T11:30:02.000Z,99538.69
2022-08-12T11:32:38.750Z,99533.84
2022-08-12T11:35:11.615Z,99530.94
2022-08-12T11:37:59.355Z,99531.03
2022-08-12T11:40:31.595Z,99543.84
2022-08-12T11:43:18.753Z,99551.81
2022-08-12T11:45:52.867Z,99551.59
2022-08-12T11:48:26.981Z,99548.66
2022-08-12T11:50:58.029Z,99554.72
2022-08-12T11:53:56.977Z,99548.22
2022-08-12T11:56:19.305Z,99544.72
2022-08-12T12:01:58.643Z,99555.88
2022-08-12T12:02:03.035Z,99545.59
2022-08-12T12:04:32.216Z,99554.09
2022-08-12T12:07:06.729Z,99566.34
2022-08-12T12:09:52.722Z,99563.13
2022-08-12T12:12:27.219Z,99559.13
2022-08-12T12:15:01.604Z,99554.56
2022-08-12T12:17:40.111Z,99564.31
2022-08-12T12:20:16.470Z,99565.75
2022-08-12T12:22:47.481Z,99565.25
2022-08-12T12:25:19.891Z,99561.19
2022-08-12T12:28:05.144Z,99566.03
2022-08-12T12:30:41.088Z,99562.81
2022-08-12T12:33:25.524Z,99553.97
2022-08-12T12:36:19.903Z,99562.91
2022-08-12T12:38:48.183Z,99556.69
2022-08-12T12:41:20.838Z,99554.34
2022-08-12T12:44:04.536Z,99560.28
2022-08-12T12:46:35.978Z,99555.16
2022-08-12T12:49:15.334Z,99566.31
2022-08-12T12:51:49.137Z,99569.13
2022-08-12T12:55:02.581Z,99576.56
2022-08-12T12:58:13.771Z,99576.34
2022-08-12T13:01:26.801Z,99574.84
2022-08-12T13:05:00.133Z,99578.63
2022-08-12T13:07:39.533Z,99580.91
2022-08-12T13:14:10.323Z,99589.94
2022-08-12T13:17:06.321Z,99603.22
2022-08-12T13:20:37.441Z,99597.56
2022-08-12T13:23:36.124Z,99589.72
2022-08-12T13:26:46.310Z,99588.13
2022-08-12T13:30:01.992Z,99583.28
2022-08-12T13:32:57.169Z,99587.69
2022-08-12T13:39:01.112Z,99589.06
2022-08-12T13:41:59.504Z,99581.84
2022-08-12T13:44:30.794Z,99585.41
2022-08-12T13:47:18.367Z,99595.84
2022-08-12T13:49:55.034Z,99591.50
2022-08-12T13:52:30.050Z,99581.56
2022-08-12T13:55:01.807Z,99592.47
2022-08-12T13:57:47.149Z,99589.25
2022-08-12T14:00:21.005Z,99594.16
2022-08-12T14:03:05.905Z,99596.34
2022-08-12T14:05:38.865Z,99611.03
2022-08-12T14:08:21.348Z,99619.47
2022-08-12T14:11:02.137Z,99613.78
2022-08-12T14:14:04.682Z,99617.28
2022-08-12T14:16:46.553Z,99630.63
2022-08-12T14:19:27.096Z,99627.94
2022-08-12T14:22:06.194Z,99625.22
2022-08-12T14:24:40.739Z,99630.13
2022-08-12T14:27:20.015Z,99639.41
2022-08-12T14:30:59.834Z,99640.25
2022-08-12T14:33:49.291Z,99646.00
2022-08-12T14:36:32.317Z,99646.94
2022-08-12T14:39:25.289Z,99648.34
2022-08-12T14:42:07.305Z,99651.38
2022-08-12T14:45:01.747Z,99645.22
2022-08-12T14:47:58.724Z,99649.53
2022-08-12T14:51:03.088Z,99658.78
2022-08-12T14:59:57.068Z,99646.97
2022-08-12T15:02:34.012Z,99648.59
2022-08-12T15:05:08.792Z,99651.31
2022-08-12T15:10:53.975Z,99663.84
2022-08-12T15:13:40.347Z,99661.66
2022-08-12T15:16:23.765Z,99669.28
2022-08-12T15:20:10.113Z,99665.53
2022-08-12T15:22:35.448Z,99676.66
2022-08-12T15:24:50.731Z,99673.72
2022-08-12T15:27:22.153Z,99672.66
2022-08-12T15:29:54.189Z,99673.25
2022-08-12T15:32:31.798Z,99670.53
2022-08-12T15:35:04.053Z,99660.00
2022-08-12T15:38:09.100Z,99664.56
2022-08-12T15:40:36.768Z,99655.34
2022-08-12T15:43:51.170Z,99662.09
2022-08-12T15:46:14.987Z,99666.44
2022-08-12T15:48:49.202Z,99666.94
2022-08-12T15:52:05.279Z,99665.06
2022-08-12T15:55:24.347Z,99668.34
2022-08-12T15:58:18.753Z,99668.34
2022-08-12T16:00:58.527Z,99662.41
2022-08-12T16:03:46.371Z,99664.56
2022-08-12T16:12:22.305Z,99668.13
2022-08-12T16:13:44.239Z,99655.75
2022-08-12T16:16:28.017Z,99657.66
2022-08-12T16:20:02.850Z,99660.16
2022-08-12T16:22:38.605Z,99647.69
2022-08-12T16:26:05.486Z,99629.31
2022-08-12T16:28:36.461Z,99631.41
2022-08-12T16:31:13.258Z,99637.66
2022-08-12T16:37:08.965Z,99647.41
2022-08-12T16:43:01.821Z,99638.75
2022-08-12T16:48:48.481Z,99631.16
2022-08-12T16:51:41.771Z,99628.72
2022-08-12T16:54:20.286Z,99639.56
2022-08-12T16:56:57.553Z,99633.91
2022-08-12T16:59:53.000Z,99638.22
2022-08-12T17:02:31.635Z,99640.69
2022-08-12T17:05:10.425Z,99643.41
2022-08-12T17:07:43.519Z,99634.75
2022-08-12T17:10:35.908Z,99631.22
2022-08-12T17:13:10.691Z,99608.81
2022-08-12T17:15:57.367Z,99608.00
2022-08-12T17:18:42.667Z,99609.09
2022-08-12T17:21:19.829Z,99612.91
2022-08-12T17:23:54.770Z,99611.00
2022-08-12T17:26:31.583Z,99607.47
2022-08-12T17:29:02.795Z,99616.69
2022-08-12T17:31:59.821Z,99611.28
2022-08-12T17:34:42.338Z,99603.16
2022-08-12T17:37:14.334Z,99606.72
2022-08-12T17:40:15.598Z,99591.53
2022-08-12T17:42:36.821Z,99593.97
2022-08-12T17:45:18.429Z,99596.13
2022-08-12T17:48:01.939Z,99573.66
2022-08-12T17:50:39.114Z,99562.03
2022-08-12T17:53:11.124Z,99552.59
2022-08-12T17:55:48.125Z,99572.34
2022-08-12T17:58:36.808Z,99563.41
2022-08-12T18:01:11.077Z,99555.09
2022-08-12T18:03:58.179Z,99557.84
2022-08-12T18:06:35.876Z,99563.56
2022-08-12T18:09:09.789Z,99561.16
2022-08-12T18:12:06.675Z,99564.13
2022-08-12T18:14:41.136Z,99557.16
2022-08-12T18:17:13.338Z,99564.19
2022-08-12T18:20:03.815Z,99563.41
2022-08-12T18:22:35.025Z,99561.53
2022-08-12T18:26:12.405Z,99553.72
2022-08-12T18:28:15.106Z,99555.88
2022-08-12T18:30:53.044Z,99558.06
2022-08-12T18:33:26.930Z,99565.13
2022-08-12T18:35:58.329Z,99560.28
2022-08-12T18:38:29.381Z,99558.13
2022-08-12T18:41:22.013Z,99565.72
2022-08-12T18:44:09.467Z,99565.44
2022-08-12T18:46:54.525Z,99571.66
2022-08-12T18:49:39.284Z,99563.78
2022-08-12T18:52:12.108Z,99557.00
2022-08-12T18:54:53.981Z,99547.81
2022-08-12T18:58:05.772Z,99545.63
2022-08-12T19:00:22.103Z,99532.63
2022-08-12T19:02:57.057Z,99542.59
2022-08-12T19:05:53.367Z,99546.13
2022-08-12T19:08:20.146Z,99546.66
2022-08-12T19:10:56.342Z,99549.34
2022-08-12T19:13:46.562Z,99547.44
2022-08-12T19:16:23.029Z,99562.59
2022-08-12T19:18:53.759Z,99567.22
2022-08-12T19:21:25.101Z,99559.09
2022-08-12T19:24:14.066Z,99565.59
2022-08-12T19:26:45.891Z,99561.50
2022-08-12T19:29:21.192Z,99562.59
2022-08-12T19:31:59.306Z,99549.34
2022-08-12T19:37:38.771Z,99559.66
2022-08-12T19:40:31.514Z,99560.72
2022-08-12T19:43:21.116Z,99564.53
2022-08-12T19:45:57.121Z,99564.81
2022-08-12T19:48:30.671Z,99568.59
2022-08-12T19:51:09.233Z,99571.88
2022-08-12T19:53:57.403Z,99567.56
2022-08-12T19:56:33.657Z,99564.06
2022-08-12T19:59:22.889Z,99557.56
2022-08-12T20:02:02.816Z,99564.88
2022-08-12T20:04:38.876Z,99564.88
2022-08-12T20:07:23.496Z,99568.66
2022-08-12T20:09:55.628Z,99576.78
2022-08-12T20:12:34.651Z,99579.75
2022-08-12T20:15:10.552Z,99580.88
2022-08-12T20:17:51.391Z,99594.41
2022-08-12T20:20:28.208Z,99602.00
2022-08-12T20:22:59.091Z,99598.44
2022-08-12T20:25:52.550Z,99602.00
2022-08-12T20:28:20.309Z,99597.66
2022-08-12T20:30:59.273Z,99598.75
2022-08-12T20:33:32.567Z,99590.66
2022-08-12T20:36:40.621Z,99592.53
2022-08-12T20:39:23.811Z,99590.09
2022-08-12T20:42:08.923Z,99598.75
2022-08-12T20:44:42.174Z,99607.94
2022-08-12T20:47:20.026Z,99607.94
2022-08-12T20:49:55.503Z,99603.34
2022-08-12T20:52:30.049Z,99604.44
2022-08-12T20:55:15.897Z,99599.31
2022-08-12T20:58:04.904Z,99603.59
2022-08-12T21:00:35.529Z,99606.88
2022-08-12T21:03:23.684Z,99608.78
2022-08-12T21:06:14.018Z,99613.38
2022-08-12T21:08:45.247Z,99625.81
2022-08-12T21:11:15.676Z,99619.31
2022-08-12T21:13:47.152Z,99613.38
2022-08-12T21:16:16.845Z,99617.19
2022-08-12T21:19:08.164Z,99627.16
2022-08-12T21:21:50.534Z,99620.72
2022-08-12T21:24:25.169Z,99629.63
2022-08-12T21:27:07.442Z,99623.69
2022-08-12T21:29:55.400Z,99631.28
2022-08-12T21:32:40.504Z,99623.19
2022-08-12T21:35:15.844Z,99633.44
2022-08-12T21:37:52.981Z,99630.22
2022-08-12T21:40:37.452Z,99624.25
2022-08-12T21:43:17.831Z,99635.91
2022-08-12T21:46:00.366Z,99634.00
2022-08-12T21:48:32.728Z,99636.44
2022-08-12T21:51:03.422Z,99636.72
2022-08-12T21:54:07.583Z,99641.06
2022-08-12T21:56:42.262Z,99642.13
2022-08-12T21:59:16.362Z,99651.31
2022-08-12T22:01:51.162Z,99658.34
2022-08-12T22:04:41.244Z,99656.72
2022-08-12T22:07:30.114Z,99652.94
2022-08-12T22:10:28.400Z,99653.47
2022-08-12T22:13:01.166Z,99651.31
2022-08-12T22:15:32.026Z,99644.56
2022-08-12T22:18:06.278Z,99652.13
2022-08-12T22:20:41.463Z,99645.06
2022-08-12T22:23:21.774Z,99649.41
2022-08-12T22:26:07.542Z,99646.97
2022-08-12T22:29:04.021Z,99655.31
2022-08-12T22:31:35.030Z,99656.13
2022-08-12T22:34:05.997Z,99655.56
2022-08-12T22:36:37.369Z,99656.38
2022-08-12T22:39:10.143Z,99662.56
2022-08-12T22:42:02.372Z,99674.50
2022-08-12T22:44:54.334Z,99675.56
2022-08-12T22:47:54.998Z,99684.75
2022-08-12T22:50:30.212Z,99693.38
2022-08-12T22:53:17.477Z,99687.97
2022-08-12T22:56:05.761Z,99687.94
2022-08-12T22:58:41.262Z,99697.13
2022-08-12T23:01:13.832Z,99703.34
2022-08-12T23:03:54.000Z,99709.28
2022-08-12T23:06:27.150Z,99709.00
2022-08-12T23:08:58.374Z,99720.38
2022-08-12T23:11:36.160Z,99717.38
2022-08-12T23:14:12.728Z,99729.25
2022-08-12T23:16:43.784Z,99732.53
2022-08-12T23:19:17.930Z,99741.69
2022-08-12T23:22:05.438Z,99733.03
2022-08-12T23:24:55.766Z,99727.03
2022-08-12T23:27:52.014Z,99733.53
2022-08-12T23:30:32.256Z,99734.56
2022-08-12T23:33:19.924Z,99738.34
2022-08-12T23:36:03.378Z,99743.19
2022-08-12T23:38:35.789Z,99738.81
2022-08-12T23:41:06.962Z,99734.25
2022-08-12T23:43:42.854Z,99737.19
2022-08-12T23:46:18.678Z,99733.63
2022-08-12T23:48:54.108Z,99738.50
2022-08-12T23:51:26.488Z,99743.34
2022-08-12T23:54:08.323Z,99736.00
2022-08-12T23:56:43.794Z,99740.56
2022-08-12T23:59:14.106Z,99741.91
